createdAt,value
2023-02-04T00:00:22.313Z,17.36
2023-02-04T00:01:22.474Z,17.36
2023-02-04T00:02:22.306Z,17.36
2023-02-04T00:03:22.290Z,17.36
2023-02-04T00:04:22.269Z,17.36
2023-02-04T00:05:22.260Z,17.36
2023-02-04T00:06:22.246Z,17.34
2023-02-04T00:07:22.251Z,17.38
2023-02-04T00:08:22.244Z,17.38
2023-02-04T00:09:22.299Z,17.38
2023-02-04T00:10:22.234Z,17.38
2023-02-04T00:11:22.199Z,17.39
2023-02-04T00:12:22.183Z,17.38
2023-02-04T00:13:22.186Z,17.38
2023-02-04T00:14:22.167Z,17.38
2023-02-04T00:15:22.162Z,17.33
2023-02-04T00:16:22.180Z,17.34
2023-02-04T00:17:22.149Z,17.31
2023-02-04T00:18:22.248Z,17.31
2023-02-04T00:19:22.120Z,17.31
2023-02-04T00:20:22.109Z,17.31
2023-02-04T00:21:22.095Z,17.33
2023-02-04T00:22:22.096Z,17.30
2023-02-04T00:23:22.080Z,17.29
2023-02-04T00:24:22.063Z,17.29
2023-02-04T00:25:22.061Z,17.29
2023-02-04T00:26:22.047Z,17.30
2023-02-04T00:27:22.041Z,17.30
2023-02-04T00:28:22.032Z,17.30
2023-02-04T00:29:22.016Z,17.31
2023-02-04T00:30:22.004Z,17.30
2023-02-04T00:31:22.124Z,17.31
2023-02-04T00:32:22.077Z,17.31
2023-02-04T00:33:21.988Z,17.30
2023-02-04T00:34:21.964Z,17.31
2023-02-04T00:35:21.957Z,17.31
2023-02-04T00:36:21.961Z,17.31
2023-02-04T00:37:21.956Z,17.33
2023-02-04T00:38:21.923Z,17.33
2023-02-04T00:39:21.916Z,17.38
2023-02-04T00:40:21.905Z,17.41
2023-02-04T00:41:21.915Z,17.42
2023-02-04T00:42:21.886Z,17.45
2023-02-04T00:43:21.879Z,17.46
2023-02-04T00:44:21.864Z,17.48
2023-02-04T00:45:21.884Z,17.49
2023-02-04T00:46:21.853Z,17.48
2023-02-04T00:47:21.837Z,17.48
2023-02-04T00:48:21.824Z,17.45
2023-02-04T00:49:21.833Z,17.46
2023-02-04T00:50:21.815Z,17.44
2023-02-04T00:51:21.800Z,17.42
2023-02-04T00:52:21.782Z,17.41
2023-02-04T00:53:21.776Z,17.39
2023-02-04T00:54:21.766Z,17.39
2023-02-04T00:55:21.771Z,17.41
2023-02-04T00:56:21.747Z,17.39
2023-02-04T00:57:21.767Z,17.39
2023-02-04T00:58:21.748Z,17.38
2023-02-04T00:59:21.719Z,17.41
2023-02-04T01:00:21.702Z,17.39
2023-02-04T01:01:21.788Z,17.39
2023-02-04T01:02:21.702Z,17.39
2023-02-04T01:03:21.688Z,17.39
2023-02-04T01:04:21.667Z,17.42
2023-02-04T01:05:21.664Z,17.44
2023-02-04T01:06:21.649Z,17.46
2023-02-04T01:07:21.704Z,17.44
2023-02-04T01:08:21.633Z,17.49
2023-02-04T01:09:21.628Z,17.51
2023-02-04T01:10:21.607Z,17.51
2023-02-04T01:11:21.598Z,17.52
2023-02-04T01:12:21.616Z,17.57
2023-02-04T01:13:21.592Z,17.54
2023-02-04T01:14:21.592Z,17.60
2023-02-04T01:15:21.563Z,17.59
2023-02-04T01:16:21.580Z,17.59
2023-02-04T01:17:21.550Z,17.63
2023-02-04T01:18:21.522Z,17.60
2023-02-04T01:19:21.533Z,17.60
2023-02-04T01:20:21.501Z,17.63
2023-02-04T01:21:21.517Z,17.63
2023-02-04T01:22:21.493Z,17.60
2023-02-04T01:23:21.475Z,17.59
2023-02-04T01:24:21.486Z,17.59
2023-02-04T01:25:21.453Z,17.64
2023-02-04T01:26:21.450Z,17.64
2023-02-04T01:27:21.453Z,17.63
2023-02-04T01:28:21.429Z,17.60
2023-02-04T01:29:21.426Z,17.64
2023-02-04T01:30:21.401Z,17.63
2023-02-04T01:31:21.513Z,17.64
2023-02-04T01:32:21.393Z,17.64
2023-02-04T01:33:21.376Z,17.64
2023-02-04T01:34:21.373Z,17.63
2023-02-04T01:35:21.356Z,17.64
2023-02-04T01:36:21.345Z,17.64
2023-02-04T01:37:21.345Z,17.64
2023-02-04T01:38:21.332Z,17.64
2023-02-04T01:39:21.323Z,17.63
2023-02-04T01:40:21.308Z,17.64
2023-02-04T01:41:21.300Z,17.63
2023-02-04T01:42:21.305Z,17.64
2023-02-04T01:43:21.278Z,17.60
2023-02-04T01:44:21.271Z,17.63
2023-02-04T01:45:21.255Z,17.63
2023-02-04T01:46:21.244Z,17.60
2023-02-04T01:47:21.234Z,17.59
2023-02-04T01:48:21.241Z,17.60
2023-02-04T01:49:21.221Z,17.63
2023-02-04T01:50:21.200Z,17.63
2023-02-04T01:51:21.193Z,17.64
2023-02-04T01:52:21.187Z,17.64
2023-02-04T01:53:21.187Z,17.64
2023-02-04T01:54:21.161Z,17.60
2023-02-04T01:55:21.151Z,17.63
2023-02-04T01:56:21.154Z,17.60
2023-02-04T01:57:21.138Z,17.64
2023-02-04T01:58:21.123Z,17.63
2023-02-04T01:59:21.130Z,17.65
2023-02-04T02:00:21.110Z,17.64
2023-02-04T02:01:21.138Z,17.67
2023-02-04T02:02:21.118Z,17.65
2023-02-04T02:03:26.655Z,17.65
2023-02-04T02:04:21.103Z,17.64
2023-02-04T02:05:21.074Z,17.65
2023-02-04T02:06:21.039Z,17.65
2023-02-04T02:07:21.033Z,17.64
2023-02-04T02:08:21.016Z,17.65
2023-02-04T02:09:21.014Z,17.67
2023-02-04T02:10:21.020Z,17.67
2023-02-04T02:11:20.992Z,17.67
2023-02-04T02:12:20.982Z,17.65
2023-02-04T02:13:20.974Z,17.65
2023-02-04T02:14:20.956Z,17.64
2023-02-04T02:15:20.956Z,17.63
2023-02-04T02:16:20.954Z,17.65
2023-02-04T02:17:20.940Z,17.64
2023-02-04T02:18:20.923Z,17.64
2023-02-04T02:19:20.905Z,17.64
2023-02-04T02:20:20.905Z,17.65
2023-02-04T02:21:20.884Z,17.65
2023-02-04T02:22:20.996Z,17.67
2023-02-04T02:23:20.891Z,17.65
2023-02-04T02:24:20.873Z,17.68
2023-02-04T02:25:20.846Z,17.65
2023-02-04T02:26:20.840Z,17.67
2023-02-04T02:27:20.823Z,17.70
2023-02-04T02:28:20.836Z,17.65
2023-02-04T02:29:20.819Z,17.68
2023-02-04T02:30:20.799Z,17.68
2023-02-04T02:31:20.939Z,17.67
2023-02-04T02:32:20.781Z,17.67
2023-02-04T02:33:20.767Z,17.67
2023-02-04T02:34:20.856Z,17.65
2023-02-04T02:35:20.747Z,17.67
2023-02-04T02:36:20.737Z,17.65
2023-02-04T02:37:20.725Z,17.64
2023-02-04T02:38:20.736Z,17.65
2023-02-04T02:39:20.706Z,17.67
2023-02-04T02:40:20.709Z,17.60
2023-02-04T02:41:20.683Z,17.63
2023-02-04T02:42:20.694Z,17.60
2023-02-04T02:43:20.668Z,17.64
2023-02-04T02:44:20.663Z,17.63
2023-02-04T02:45:20.652Z,17.59
2023-02-04T02:46:20.712Z,17.60
2023-02-04T02:47:20.631Z,17.60
2023-02-04T02:48:20.620Z,17.59
2023-02-04T02:49:20.612Z,17.60
2023-02-04T02:50:20.605Z,17.59
2023-02-04T02:51:20.583Z,17.59
2023-02-04T02:52:20.569Z,17.59
2023-02-04T02:53:20.562Z,17.59
2023-02-04T02:54:20.563Z,17.59
2023-02-04T02:55:20.550Z,17.60
2023-02-04T02:56:20.534Z,17.59
2023-02-04T02:57:20.517Z,17.57
2023-02-04T02:58:20.510Z,17.60
2023-02-04T02:59:20.505Z,17.60
2023-02-04T03:00:20.508Z,17.63
2023-02-04T03:01:20.499Z,17.63
2023-02-04T03:02:20.506Z,17.65
2023-02-04T03:03:20.461Z,17.65
2023-02-04T03:04:20.441Z,17.64
2023-02-04T03:05:20.440Z,17.67
2023-02-04T03:06:20.480Z,17.65
2023-02-04T03:07:20.427Z,17.67
2023-02-04T03:08:20.424Z,17.67
2023-02-04T03:09:20.469Z,17.65
2023-02-04T03:10:20.390Z,17.65
2023-02-04T03:11:20.374Z,17.67
2023-02-04T03:12:20.373Z,17.65
2023-02-04T03:13:20.363Z,17.67
2023-02-04T03:14:20.350Z,17.64
2023-02-04T03:15:20.331Z,17.64
2023-02-04T03:16:20.342Z,17.64
2023-02-04T03:17:20.315Z,17.65
2023-02-04T03:18:20.318Z,17.64
2023-02-04T03:19:20.296Z,17.65
2023-02-04T03:20:20.286Z,17.64
2023-02-04T03:21:20.305Z,17.64
2023-02-04T03:22:20.287Z,17.64
2023-02-04T03:23:20.266Z,17.64
2023-02-04T03:24:20.253Z,17.67
2023-02-04T03:25:20.235Z,17.64
2023-02-04T03:26:20.229Z,17.63
2023-02-04T03:27:20.232Z,17.65
2023-02-04T03:28:20.213Z,17.65
2023-02-04T03:29:20.200Z,17.65
2023-02-04T03:30:20.196Z,17.65
2023-02-04T03:31:20.289Z,17.67
2023-02-04T03:32:20.192Z,17.67
2023-02-04T03:33:20.154Z,17.65
2023-02-04T03:34:20.152Z,17.68
2023-02-04T03:35:20.133Z,17.67
2023-02-04T03:36:20.141Z,17.64
2023-02-04T03:37:20.125Z,17.64
2023-02-04T03:38:20.179Z,17.65
2023-02-04T03:39:20.102Z,17.65
2023-02-04T03:40:20.102Z,17.65
2023-02-04T03:41:20.076Z,17.64
2023-02-04T03:42:20.087Z,17.65
2023-02-04T03:43:20.067Z,17.65
2023-02-04T03:44:20.055Z,17.64
2023-02-04T03:45:20.050Z,17.64
2023-02-04T03:46:20.156Z,17.64
2023-02-04T03:47:20.034Z,17.60
2023-02-04T03:48:20.014Z,17.64
2023-02-04T03:49:20.003Z,17.63
2023-02-04T03:50:19.984Z,17.63
2023-02-04T03:51:19.976Z,17.63
2023-02-04T03:52:19.966Z,17.65
2023-02-04T03:53:19.961Z,17.64
2023-02-04T03:54:19.957Z,17.63
2023-02-04T03:55:19.956Z,17.64
2023-02-04T03:56:19.949Z,17.64
2023-02-04T03:57:19.925Z,17.67
2023-02-04T03:58:19.929Z,17.67
2023-02-04T03:59:19.898Z,17.67
2023-02-04T04:00:19.884Z,17.67
2023-02-04T04:01:19.921Z,17.67
2023-02-04T04:02:19.885Z,17.67
2023-02-04T04:03:19.879Z,17.65
2023-02-04T04:04:19.843Z,17.67
2023-02-04T04:05:19.839Z,17.65
2023-02-04T04:06:19.824Z,17.67
2023-02-04T04:07:19.828Z,17.67
2023-02-04T04:08:19.816Z,17.67
2023-02-04T04:09:19.812Z,17.68
2023-02-04T04:10:19.782Z,17.65
2023-02-04T04:11:19.769Z,17.67
2023-02-04T04:12:19.793Z,17.67
2023-02-04T04:13:19.749Z,17.65
2023-02-04T04:14:19.743Z,17.65
2023-02-04T04:15:19.738Z,17.67
2023-02-04T04:16:19.759Z,17.67
2023-02-04T04:17:19.715Z,17.65
2023-02-04T04:18:19.701Z,17.65
2023-02-04T04:19:19.699Z,17.65
2023-02-04T04:20:19.694Z,17.65
2023-02-04T04:21:19.670Z,17.64
2023-02-04T04:22:19.667Z,17.63
2023-02-04T04:23:19.659Z,17.64
2023-02-04T04:24:19.644Z,17.64
2023-02-04T04:25:19.640Z,17.64
2023-02-04T04:26:19.628Z,17.64
2023-02-04T04:27:19.623Z,17.64
2023-02-04T04:28:19.619Z,17.64
2023-02-04T04:29:19.599Z,17.63
2023-02-04T04:30:19.593Z,17.60
2023-02-04T04:31:19.736Z,17.63
2023-02-04T04:32:19.561Z,17.64
2023-02-04T04:33:19.550Z,17.64
2023-02-04T04:34:19.544Z,17.64
2023-02-04T04:35:19.538Z,17.63
2023-02-04T04:36:19.522Z,17.65
2023-02-04T04:37:19.504Z,17.64
2023-02-04T04:38:19.498Z,17.64
2023-02-04T04:39:19.488Z,17.65
2023-02-04T04:40:19.491Z,17.65
2023-02-04T04:41:19.469Z,17.67
2023-02-04T04:42:19.455Z,17.71
2023-02-04T04:43:19.450Z,17.74
2023-02-04T04:44:19.450Z,17.76
2023-02-04T04:45:19.424Z,17.82
2023-02-04T04:46:19.505Z,17.86
2023-02-04T04:47:19.401Z,17.90
2023-02-04T04:48:19.397Z,17.94
2023-02-04T04:49:19.375Z,18.00
2023-02-04T04:50:19.372Z,18.03
2023-02-04T04:51:19.368Z,18.08
2023-02-04T04:52:19.349Z,18.10
2023-02-04T04:53:19.338Z,18.16
2023-02-04T04:54:19.347Z,18.19
2023-02-04T04:55:19.314Z,18.19
2023-02-04T04:56:19.345Z,18.25
2023-02-04T04:57:19.302Z,18.29
2023-02-04T04:58:19.287Z,18.31
2023-02-04T04:59:19.284Z,18.33
2023-02-04T05:00:19.282Z,18.35
2023-02-04T05:01:19.293Z,18.37
2023-02-04T05:02:19.256Z,18.40
2023-02-04T05:03:19.231Z,18.41
2023-02-04T05:04:19.240Z,18.45
2023-02-04T05:05:19.210Z,18.47
2023-02-04T05:06:19.218Z,18.47
2023-02-04T05:07:19.199Z,18.50
2023-02-04T05:08:19.187Z,18.52
2023-02-04T05:09:19.171Z,18.53
2023-02-04T05:10:19.165Z,18.55
2023-02-04T05:11:19.161Z,18.55
2023-02-04T05:12:19.141Z,18.58
2023-02-04T05:13:19.126Z,18.58
2023-02-04T05:14:19.123Z,18.58
2023-02-04T05:15:19.109Z,18.58
2023-02-04T05:16:19.130Z,18.59
2023-02-04T05:17:19.115Z,18.60
2023-02-04T05:18:19.082Z,18.63
2023-02-04T05:19:19.090Z,18.62
2023-02-04T05:20:19.063Z,18.62
2023-02-04T05:21:19.067Z,18.65
2023-02-04T05:22:19.043Z,18.65
2023-02-04T05:23:19.022Z,18.65
2023-02-04T05:24:19.018Z,18.66
2023-02-04T05:25:19.016Z,18.68
2023-02-04T05:26:29.609Z,18.70
2023-02-04T05:27:18.984Z,18.70
2023-02-04T05:28:19.060Z,18.71
2023-02-04T05:29:18.957Z,18.74
2023-02-04T05:30:18.975Z,18.75
2023-02-04T05:31:19.038Z,18.74
2023-02-04T05:32:18.927Z,18.77
2023-02-04T05:33:18.917Z,18.77
2023-02-04T05:34:18.908Z,18.75
2023-02-04T05:35:18.895Z,18.78
2023-02-04T05:36:18.892Z,18.80
2023-02-04T05:37:18.879Z,18.80
2023-02-04T05:38:18.862Z,18.81
2023-02-04T05:39:18.854Z,18.80
2023-02-04T05:40:18.838Z,18.81
2023-02-04T05:41:18.837Z,18.83
2023-02-04T05:42:18.824Z,18.84
2023-02-04T05:43:18.824Z,18.86
2023-02-04T05:44:18.803Z,18.83
2023-02-04T05:45:18.781Z,18.86
2023-02-04T05:46:18.787Z,18.88
2023-02-04T05:47:18.765Z,18.86
2023-02-04T05:48:18.765Z,18.88
2023-02-04T05:49:18.761Z,18.88
2023-02-04T05:50:18.730Z,18.88
2023-02-04T05:51:18.721Z,18.86
2023-02-04T05:52:18.724Z,18.89
2023-02-04T05:53:18.700Z,18.90
2023-02-04T05:54:18.705Z,18.89
2023-02-04T05:55:18.676Z,18.90
2023-02-04T05:56:18.672Z,18.92
2023-02-04T05:57:18.655Z,18.93
2023-02-04T05:58:18.659Z,18.92
2023-02-04T05:59:18.645Z,18.93
2023-02-04T06:00:18.630Z,18.93
2023-02-04T06:01:18.615Z,18.96
2023-02-04T06:02:18.611Z,18.96
2023-02-04T06:03:18.611Z,18.98
2023-02-04T06:04:18.681Z,18.98
2023-02-04T06:05:18.570Z,18.98
2023-02-04T06:06:18.561Z,18.98
2023-02-04T06:07:18.545Z,18.98
2023-02-04T06:08:18.557Z,18.99
2023-02-04T06:09:18.525Z,18.98
2023-02-04T06:10:18.530Z,18.99
2023-02-04T06:11:18.508Z,19.00
2023-02-04T06:12:18.500Z,18.99
2023-02-04T06:13:18.476Z,19.02
2023-02-04T06:14:18.485Z,19.00
2023-02-04T06:15:18.467Z,18.99
2023-02-04T06:16:18.480Z,19.00
2023-02-04T06:17:18.433Z,19.04
2023-02-04T06:18:18.424Z,19.04
2023-02-04T06:19:18.412Z,19.04
2023-02-04T06:20:18.425Z,19.08
2023-02-04T06:21:18.401Z,19.07
2023-02-04T06:22:18.380Z,19.08
2023-02-04T06:23:18.378Z,19.07
2023-02-04T06:24:18.370Z,19.08
2023-02-04T06:25:18.351Z,19.07
2023-02-04T06:26:18.397Z,19.08
2023-02-04T06:27:18.335Z,19.08
2023-02-04T06:28:18.388Z,19.07
2023-02-04T06:29:18.303Z,19.11
2023-02-04T06:30:18.361Z,19.08
2023-02-04T06:31:18.419Z,19.08
2023-02-04T06:32:18.277Z,19.07
2023-02-04T06:33:18.269Z,19.07
2023-02-04T06:34:18.248Z,19.08
2023-02-04T06:35:18.253Z,19.08
2023-02-04T06:36:18.230Z,19.09
2023-02-04T06:37:18.233Z,19.08
2023-02-04T06:38:18.211Z,19.08
2023-02-04T06:39:18.253Z,19.11
2023-02-04T06:40:18.191Z,19.09
2023-02-04T06:41:18.179Z,19.12
2023-02-04T06:42:18.187Z,19.14
2023-02-04T06:43:18.101Z,19.15
2023-02-04T06:44:18.142Z,19.14
2023-02-04T06:45:18.169Z,19.15
2023-02-04T06:46:18.160Z,19.18
2023-02-04T06:47:18.114Z,19.18
2023-02-04T06:48:18.106Z,19.18
2023-02-04T06:49:18.048Z,19.19
2023-02-04T06:50:18.024Z,19.21
2023-02-04T06:51:18.015Z,19.19
2023-02-04T06:52:18.004Z,19.22
2023-02-04T06:53:18.004Z,19.22
2023-02-04T06:54:17.985Z,19.24
2023-02-04T06:55:18.027Z,19.19
2023-02-04T06:56:18.045Z,19.22
2023-02-04T06:57:17.967Z,19.22
2023-02-04T06:58:17.944Z,19.22
2023-02-04T06:59:17.929Z,19.22
2023-02-04T07:00:17.915Z,19.21
2023-02-04T07:01:17.961Z,19.21
2023-02-04T07:02:17.924Z,19.21
2023-02-04T07:03:17.930Z,19.19
2023-02-04T07:04:17.923Z,19.21
2023-02-04T07:05:17.873Z,19.22
2023-02-04T07:06:17.855Z,19.21
2023-02-04T07:07:17.852Z,19.24
2023-02-04T07:08:17.844Z,19.26
2023-02-04T07:09:17.834Z,19.24
2023-02-04T07:10:17.811Z,19.26
2023-02-04T07:11:17.824Z,19.26
2023-02-04T07:12:17.789Z,19.26
2023-02-04T07:13:17.782Z,19.26
2023-02-04T07:14:17.786Z,19.24
2023-02-04T07:15:17.788Z,19.24
2023-02-04T07:16:17.826Z,19.27
2023-02-04T07:17:17.773Z,19.27
2023-02-04T07:18:17.775Z,19.27
2023-02-04T07:19:19.164Z,19.27
2023-02-04T07:20:17.703Z,19.27
2023-02-04T07:21:17.705Z,19.29
2023-02-04T07:22:17.681Z,19.27
2023-02-04T07:23:17.677Z,19.26
2023-02-04T07:24:17.658Z,19.27
2023-02-04T07:25:17.667Z,19.29
2023-02-04T07:26:17.686Z,19.30
2023-02-04T07:27:17.645Z,19.29
2023-02-04T07:28:17.634Z,19.30
2023-02-04T07:29:24.951Z,19.31
2023-02-04T07:30:17.621Z,19.31
2023-02-04T07:31:17.696Z,19.30
2023-02-04T07:32:17.586Z,19.29
2023-02-04T07:33:17.583Z,19.29
2023-02-04T07:34:17.567Z,19.30
2023-02-04T07:35:17.561Z,19.30
2023-02-04T07:36:17.533Z,19.29
2023-02-04T07:37:17.557Z,19.29
2023-02-04T07:38:17.521Z,19.31
2023-02-04T07:39:17.509Z,19.31
2023-02-04T07:40:17.488Z,19.33
2023-02-04T07:41:17.483Z,19.31
2023-02-04T07:42:17.482Z,19.33
2023-02-04T07:43:17.467Z,19.34
2023-02-04T07:44:17.456Z,19.31
2023-02-04T07:45:17.459Z,19.33
2023-02-04T07:46:17.449Z,19.34
2023-02-04T07:47:17.410Z,19.30
2023-02-04T07:48:17.413Z,19.31
2023-02-04T07:49:17.394Z,19.34
2023-02-04T07:50:17.377Z,19.33
2023-02-04T07:51:17.380Z,19.33
2023-02-04T07:52:17.357Z,19.31
2023-02-04T07:53:17.357Z,19.31
2023-02-04T07:54:17.334Z,19.31
2023-02-04T07:55:17.341Z,19.31
2023-02-04T07:56:17.311Z,19.33
2023-02-04T07:57:18.754Z,19.31
2023-02-04T07:58:17.297Z,19.33
2023-02-04T07:59:17.287Z,19.34
2023-02-04T08:00:17.275Z,19.34
2023-02-04T08:01:17.476Z,19.34
2023-02-04T08:02:17.280Z,19.36
2023-02-04T08:03:17.248Z,19.34
2023-02-04T08:04:17.250Z,19.36
2023-02-04T08:05:17.219Z,19.36
2023-02-04T08:06:17.210Z,19.34
2023-02-04T08:07:17.203Z,19.39
2023-02-04T08:08:17.185Z,19.37
2023-02-04T08:09:17.209Z,19.39
2023-02-04T08:10:17.180Z,19.40
2023-02-04T08:11:17.172Z,19.40
2023-02-04T08:12:17.143Z,19.39
2023-02-04T08:13:17.145Z,19.40
2023-02-04T08:14:17.122Z,19.41
2023-02-04T08:15:17.139Z,19.40
2023-02-04T08:16:17.166Z,19.40
2023-02-04T08:17:17.091Z,19.40
2023-02-04T08:18:17.089Z,19.41
2023-02-04T08:19:17.071Z,19.41
2023-02-04T08:20:17.069Z,19.41
2023-02-04T08:21:19.185Z,19.41
2023-02-04T08:22:17.048Z,19.44
2023-02-04T08:23:17.071Z,19.47
2023-02-04T08:24:17.022Z,19.44
2023-02-04T08:25:17.013Z,19.45
2023-02-04T08:26:17.004Z,19.45
2023-02-04T08:27:16.995Z,19.44
2023-02-04T08:28:17.080Z,19.47
2023-02-04T08:29:16.982Z,19.45
2023-02-04T08:30:16.963Z,19.47
2023-02-04T08:31:17.103Z,19.47
2023-02-04T08:32:16.934Z,19.48
2023-02-04T08:33:16.933Z,19.51
2023-02-04T08:34:16.943Z,19.52
2023-02-04T08:35:16.906Z,19.51
2023-02-04T08:36:16.910Z,19.52
2023-02-04T08:37:16.889Z,19.52
2023-02-04T08:38:16.888Z,19.52
2023-02-04T08:39:16.911Z,19.54
2023-02-04T08:40:16.861Z,19.49
2023-02-04T08:41:16.876Z,19.54
2023-02-04T08:42:16.829Z,19.52
2023-02-04T08:43:16.848Z,19.51
2023-02-04T08:44:16.824Z,19.51
2023-02-04T08:45:16.816Z,19.51
2023-02-04T08:46:16.854Z,19.51
2023-02-04T08:47:16.797Z,19.51
2023-02-04T08:48:16.777Z,19.49
2023-02-04T08:49:16.787Z,19.51
2023-02-04T08:50:16.773Z,19.49
2023-02-04T08:51:16.762Z,19.52
2023-02-04T08:52:16.752Z,19.51
2023-02-04T08:53:16.738Z,19.51
2023-02-04T08:54:16.743Z,19.52
2023-02-04T08:55:16.730Z,19.52
2023-02-04T08:56:16.722Z,19.55
2023-02-04T08:57:16.706Z,19.52
2023-02-04T08:58:16.698Z,19.54
2023-02-04T08:59:16.734Z,19.52
2023-02-04T09:00:16.666Z,19.52
2023-02-04T09:01:16.764Z,19.54
2023-02-04T09:02:16.733Z,19.54
2023-02-04T09:03:16.649Z,19.56
2023-02-04T09:04:16.627Z,19.55
2023-02-04T09:05:16.624Z,19.56
2023-02-04T09:06:16.674Z,19.56
2023-02-04T09:07:16.622Z,19.55
2023-02-04T09:08:16.621Z,19.56
2023-02-04T09:09:16.594Z,19.56
2023-02-04T09:10:16.591Z,19.56
2023-02-04T09:11:16.578Z,19.56
2023-02-04T09:12:16.558Z,19.58
2023-02-04T09:13:16.541Z,19.56
2023-02-04T09:14:16.540Z,19.54
2023-02-04T09:15:16.521Z,19.56
2023-02-04T09:16:16.576Z,19.58
2023-02-04T09:17:16.523Z,19.56
2023-02-04T09:18:16.497Z,19.59
2023-02-04T09:19:16.482Z,19.59
2023-02-04T09:20:16.496Z,19.59
2023-02-04T09:21:16.461Z,19.62
2023-02-04T09:22:16.465Z,19.63
2023-02-04T09:23:16.506Z,19.62
2023-02-04T09:24:16.448Z,19.63
2023-02-04T09:25:16.442Z,19.62
2023-02-04T09:26:16.409Z,19.64
2023-02-04T09:27:16.403Z,19.64
2023-02-04T09:28:16.473Z,19.64
2023-02-04T09:29:16.421Z,19.63
2023-02-04T09:30:16.388Z,19.63
2023-02-04T09:31:16.533Z,19.63
2023-02-04T09:32:16.407Z,19.62
2023-02-04T09:33:16.366Z,19.64
2023-02-04T09:34:16.369Z,19.64
2023-02-04T09:35:16.322Z,19.64
2023-02-04T09:36:16.324Z,19.66
2023-02-04T09:37:16.299Z,19.64
2023-02-04T09:38:16.298Z,19.66
2023-02-04T09:39:16.288Z,19.66
2023-02-04T09:40:16.668Z,19.67
2023-02-04T09:41:16.281Z,19.67
2023-02-04T09:42:16.257Z,19.69
2023-02-04T09:43:16.248Z,19.69
2023-02-04T09:44:16.247Z,19.70
2023-02-04T09:45:16.233Z,19.71
2023-02-04T09:46:16.304Z,19.70
2023-02-04T09:47:16.200Z,19.70
2023-02-04T09:48:16.204Z,19.70
2023-02-04T09:49:16.191Z,19.71
2023-02-04T09:50:16.167Z,19.73
2023-02-04T09:51:16.167Z,19.73
2023-02-04T09:52:16.145Z,19.70
2023-02-04T09:53:16.139Z,19.73
2023-02-04T09:54:16.131Z,19.73
2023-02-04T09:55:16.137Z,19.73
2023-02-04T09:56:16.102Z,19.71
2023-02-04T09:57:16.092Z,19.70
2023-02-04T09:58:16.163Z,19.69
2023-02-04T09:59:16.069Z,19.69
2023-02-04T10:00:16.064Z,19.69
2023-02-04T10:01:16.133Z,19.70
2023-02-04T10:02:16.025Z,19.67
2023-02-04T10:03:16.074Z,19.67
2023-02-04T10:04:16.015Z,19.69
2023-02-04T10:05:15.995Z,19.67
2023-02-04T10:06:15.992Z,19.67
2023-02-04T10:07:15.974Z,19.69
2023-02-04T10:08:15.962Z,19.67
2023-02-04T10:09:21.169Z,19.71
2023-02-04T10:10:15.935Z,19.71
2023-02-04T10:11:15.938Z,19.71
2023-02-04T10:12:15.914Z,19.70
2023-02-04T10:13:15.967Z,19.73
2023-02-04T10:14:15.895Z,19.73
2023-02-04T10:15:15.906Z,19.71
2023-02-04T10:16:15.965Z,19.71
2023-02-04T10:17:15.868Z,19.74
2023-02-04T10:18:15.854Z,19.73
2023-02-04T10:19:15.865Z,19.71
2023-02-04T10:20:15.828Z,19.71
2023-02-04T10:21:15.841Z,19.74
2023-02-04T10:22:15.813Z,19.71
2023-02-04T10:23:15.867Z,19.71
2023-02-04T10:24:15.795Z,19.70
2023-02-04T10:25:17.824Z,19.71
2023-02-04T10:26:15.765Z,19.73
2023-02-04T10:27:15.771Z,19.73
2023-02-04T10:28:15.818Z,19.73
2023-02-04T10:29:15.756Z,19.74
2023-02-04T10:30:15.729Z,19.77
2023-02-04T10:31:15.872Z,19.77
2023-02-04T10:32:15.708Z,19.77
2023-02-04T10:33:15.738Z,19.77
2023-02-04T10:34:18.165Z,19.76
2023-02-04T10:35:15.686Z,19.79
2023-02-04T10:36:15.677Z,19.81
2023-02-04T10:37:15.660Z,19.77
2023-02-04T10:38:15.654Z,19.76
2023-02-04T10:39:15.658Z,19.79
2023-02-04T10:40:15.631Z,19.81
2023-02-04T10:41:15.627Z,19.79
2023-02-04T10:42:15.618Z,19.81
2023-02-04T10:43:15.597Z,19.82
2023-02-04T10:44:15.597Z,19.82
2023-02-04T10:45:15.603Z,19.84
2023-02-04T10:46:15.634Z,19.82
2023-02-04T10:47:15.562Z,19.81
2023-02-04T10:48:15.558Z,19.82
2023-02-04T10:49:15.556Z,19.81
2023-02-04T10:50:15.532Z,19.79
2023-02-04T10:51:15.514Z,19.82
2023-02-04T10:52:15.510Z,19.81
2023-02-04T10:53:15.508Z,19.81
2023-02-04T10:54:15.502Z,19.77
2023-02-04T10:55:15.522Z,19.79
2023-02-04T10:56:15.502Z,19.76
2023-02-04T10:57:15.450Z,19.77
2023-02-04T10:58:16.181Z,19.77
2023-02-04T10:59:15.433Z,19.77
2023-02-04T11:00:15.436Z,19.81
2023-02-04T11:01:15.475Z,19.76
2023-02-04T11:02:15.400Z,19.76
2023-02-04T11:03:15.494Z,19.79
2023-02-04T11:04:15.383Z,19.77
2023-02-04T11:05:15.388Z,19.82
2023-02-04T11:06:15.360Z,19.77
2023-02-04T11:07:15.363Z,19.81
2023-02-04T11:08:15.364Z,19.81
2023-02-04T11:09:15.325Z,19.81
2023-02-04T11:10:15.322Z,19.82
2023-02-04T11:11:15.311Z,19.85
2023-02-04T11:12:15.317Z,19.81
2023-02-04T11:13:15.296Z,19.84
2023-02-04T11:14:15.278Z,19.84
2023-02-04T11:15:15.269Z,19.84
2023-02-04T11:16:15.314Z,19.84
2023-02-04T11:17:15.258Z,19.86
2023-02-04T11:18:15.267Z,19.85
2023-02-04T11:19:15.233Z,19.88
2023-02-04T11:20:15.214Z,19.86
2023-02-04T11:21:15.214Z,19.89
2023-02-04T11:22:15.197Z,19.88
2023-02-04T11:23:15.236Z,19.88
2023-02-04T11:24:15.200Z,19.88
2023-02-04T11:25:15.165Z,19.88
2023-02-04T11:26:15.206Z,19.89
2023-02-04T11:27:15.141Z,19.86
2023-02-04T11:28:15.207Z,19.88
2023-02-04T11:29:15.136Z,19.86
2023-02-04T11:30:15.111Z,19.88
2023-02-04T11:31:15.214Z,19.85
2023-02-04T11:32:15.093Z,19.88
2023-02-04T11:33:15.083Z,19.88
2023-02-04T11:34:15.083Z,19.86
2023-02-04T11:35:15.066Z,19.86
2023-02-04T11:36:15.062Z,19.84
2023-02-04T11:37:15.040Z,19.84
2023-02-04T11:38:15.031Z,19.84
2023-02-04T11:39:15.012Z,19.84
2023-02-04T11:40:15.059Z,19.85
2023-02-04T11:41:15.004Z,19.86
2023-02-04T11:42:14.994Z,19.82
2023-02-04T11:43:14.983Z,19.84
2023-02-04T11:44:14.962Z,19.84
2023-02-04T11:45:14.978Z,19.82
2023-02-04T11:46:15.011Z,19.84
2023-02-04T11:47:14.939Z,19.84
2023-02-04T11:48:14.919Z,19.82
2023-02-04T11:49:14.910Z,19.85
2023-02-04T11:50:15.000Z,19.85
2023-02-04T11:51:14.888Z,19.84
2023-02-04T11:52:14.880Z,19.84
2023-02-04T11:53:14.865Z,19.86
2023-02-04T11:54:14.866Z,19.82
2023-02-04T11:55:14.851Z,19.85
2023-02-04T11:56:14.862Z,19.84
2023-02-04T11:57:14.830Z,19.85
2023-02-04T11:58:14.887Z,19.84
2023-02-04T11:59:14.825Z,19.82
2023-02-04T12:00:14.799Z,19.77
2023-02-04T12:01:14.806Z,19.81
2023-02-04T12:02:15.142Z,19.79
2023-02-04T12:03:14.839Z,19.79
2023-02-04T12:04:14.767Z,19.79
2023-02-04T12:05:14.748Z,19.77
2023-02-04T12:06:14.740Z,19.81
2023-02-04T12:07:14.726Z,19.79
2023-02-04T12:08:14.727Z,19.82
2023-02-04T12:09:14.709Z,19.81
2023-02-04T12:10:14.752Z,19.79
2023-02-04T12:11:14.687Z,19.82
2023-02-04T12:12:14.673Z,19.81
2023-02-04T12:13:14.684Z,19.81
2023-02-04T12:14:14.656Z,19.81
2023-02-04T12:15:14.649Z,19.81
2023-02-04T12:16:14.725Z,19.82
2023-02-04T12:17:14.628Z,19.84
2023-02-04T12:18:14.616Z,19.82
2023-02-04T12:19:14.598Z,19.82
2023-02-04T12:20:14.592Z,19.82
2023-02-04T12:21:14.577Z,19.84
2023-02-04T12:22:14.599Z,19.84
2023-02-04T12:23:14.555Z,19.82
2023-02-04T12:24:14.557Z,19.84
2023-02-04T12:25:14.555Z,19.85
2023-02-04T12:26:14.563Z,19.85
2023-02-04T12:27:14.520Z,19.86
2023-02-04T12:28:14.578Z,19.85
2023-02-04T12:29:14.529Z,19.85
2023-02-04T12:30:14.486Z,19.85
2023-02-04T12:31:14.653Z,19.85
2023-02-04T12:32:14.516Z,19.85
2023-02-04T12:33:15.142Z,19.84
2023-02-04T12:34:14.460Z,19.85
2023-02-04T12:35:14.449Z,19.84
2023-02-04T12:36:14.498Z,19.85
2023-02-04T12:37:14.411Z,19.84
2023-02-04T12:38:15.206Z,19.85
2023-02-04T12:39:14.386Z,19.85
2023-02-04T12:40:14.403Z,19.85
2023-02-04T12:41:14.399Z,19.85
2023-02-04T12:42:14.362Z,19.84
2023-02-04T12:43:14.351Z,19.84
2023-02-04T12:44:14.338Z,19.85
2023-02-04T12:45:14.327Z,19.84
2023-02-04T12:46:14.364Z,19.85
2023-02-04T12:47:14.303Z,19.85
2023-02-04T12:48:14.385Z,19.84
2023-02-04T12:49:14.293Z,19.84
2023-02-04T12:50:14.274Z,19.85
2023-02-04T12:51:14.262Z,19.82
2023-02-04T12:52:14.277Z,19.84